• Join FlightAware (Why Join?)
  • Login
  • US Flag 
10:04AM EST


 

Airport Tracker/Info


-or-


 

Live Flight TrackerFlight Track Log ✈ EJA221 ✈ 07-Jul-2013 ✈ CYYZ - KSUS

Flight Track Log - Related Links

Times and Time Zones

All times are in EDT time to prevent confusion due to time zone crossing. See the EJA221 flight status page for this flight to view local times or setup timezone preferences in your user account.

Time Position Orientation Groundspeed Altitude Reporting Facility
EDT Latitude Longitude Course Direction KTS MPH feet Rate Location/Type
08:06PM 43.6667 -79.6500 227° Southwest 160 184 1,600  Level Toronto Center
08:07PM 43.6333 -79.7000 227° Southwest 220 253 4,700 2,700 Climbing Toronto Center
08:08PM 43.5500 -79.7500 204° Southwest 280 322 7,000 1,140 Climbing Toronto Center
08:09PM 43.4833 -79.7667 190° South 280 322 7,000 120 Level Toronto Center
08:10PM 43.4000 -79.8167 204° Southwest 280 322 7,300 1,860 Climbing Toronto Center
08:11PM 43.3667 -79.8833 235° Southwest 280 322 10,800 2,700 Climbing Toronto Center
08:12PM 43.3000 -80.0000 232° Southwest 330 380 12,800 2,160 Climbing Toronto Center
08:13PM 43.2333 -80.0833 222° Southwest 360 414 15,200 2,400 Climbing Toronto Center
08:14PM 43.1667 -80.2000 232° Southwest 370 426 17,600 2,160 Climbing Toronto Center
08:15PM 43.0833 -80.3167 226° Southwest 390 449 19,600 1,980 Climbing Toronto Center
08:17PM 42.9375 -80.5578 230° Southwest 403 464 23,600 1,980 Climbing Cleveland Center
08:18PM 42.8583 -80.6739 227° Southwest 408 470 25,700 2,040 Climbing Cleveland Center
08:19PM 42.7747 -80.7897 226° Southwest 419 482 27,700 2,040 Climbing Cleveland Center
08:20PM 42.6953 -80.9025 226° Southwest 419 482 29,800 1,980 Climbing Cleveland Center
08:21PM 42.6114 -81.0206 226° Southwest 424 488 31,700 2,160 Climbing Cleveland Center
08:22PM 42.5278 -81.1353 225° Southwest 429 494 34,200 2,100 Climbing Cleveland Center
08:23PM 42.4478 -81.2444 225° Southwest 423 487 36,000 900 Climbing Cleveland Center
08:24PM 42.3681 -81.3531 225° Southwest 412 474 36,000  Level Cleveland Center
08:25PM 42.2858 -81.4617 224° Southwest 407 468 36,000  Level Cleveland Center
08:26PM 42.2058 -81.5725 226° Southwest 407 468 36,100 540 Climbing Cleveland Center
08:27PM 42.1319 -81.6694 224° Southwest 407 468 37,100 1,200 Climbing Cleveland Center
08:29PM 41.9628 -81.8956 225° Southwest 431 496 39,700 960 Climbing Cleveland Center
08:30PM 41.8761 -82.0136 225° Southwest 437 503 40,000 120 Climbing Cleveland Center
08:31PM 41.7806 -82.1314 223° Southwest 456 525 40,000  Level Cleveland Center
08:32PM 41.6872 -82.2542 225° Southwest 461 531 40,000  Level Cleveland Center
08:33PM 41.6119 -82.3994 235° Southwest 471 542 40,000  Level Cleveland Center
08:34PM 41.5469 -82.5503 240° Southwest 471 542 40,000  Level Cleveland Center
08:35PM 41.4839 -82.7036 241° Southwest 471 542 40,000  Level Cleveland Center
08:36PM 41.4164 -82.8536 239° Southwest 477 549 40,000  Level Cleveland Center
08:37PM 41.3461 -83.0228 241° Southwest 477 549 40,000  Level Cleveland Center
08:38PM 41.2803 -83.1722 240° Southwest 477 549 40,000  Level Cleveland Center
08:40PM 41.1717 -83.4178 240° Southwest 480 552 40,000  Level Indianapolis Center
08:41PM 41.1050 -83.5708 240° Southwest 476 548 40,000  Level Indianapolis Center
08:42PM 41.0333 -83.7306 239° Southwest 472 543 40,000  Level Indianapolis Center
08:43PM 40.9650 -83.8844 240° Southwest 481 554 40,000  Level Indianapolis Center
08:44PM 40.8981 -84.0378 240° Southwest 478 550 40,000  Level Indianapolis Center
08:45PM 40.8183 -84.2147 239° Southwest 478 550 40,000  Level Indianapolis Center
08:46PM 40.7508 -84.3639 239° Southwest 472 543 40,000  Level Indianapolis Center
08:47PM 40.6831 -84.5142 239° Southwest 473 544 40,000  Level Indianapolis Center
08:48PM 40.6150 -84.6636 239° Southwest 473 544 40,000  Level Indianapolis Center
08:49PM 40.5464 -84.8131 239° Southwest 473 544 40,000  Level Indianapolis Center
08:50PM 40.4778 -84.9633 239° Southwest 480 552 40,000  Level Indianapolis Center
08:51PM 40.4086 -85.1128 239° Southwest 482 555 40,000  Level Indianapolis Center
08:52PM 40.3386 -85.2608 238° Southwest 480 552 40,000  Level Indianapolis Center
08:53PM 40.2708 -85.4081 239° Southwest 475 547 40,000  Level Indianapolis Center
08:54PM 40.1878 -85.5831 238° Southwest 474 545 40,000  Level Indianapolis Center
08:55PM 40.1192 -85.7306 239° Southwest 476 548 40,000  Level Indianapolis Center
08:56PM 40.0494 -85.8775 238° Southwest 478 550 40,000  Level Indianapolis Center
08:58PM 39.9806 -86.0231 238° Southwest 476 548 40,000  Level Indianapolis Center
08:59PM 39.9128 -86.1661 238° Southwest 470 541 40,000  Level Indianapolis Center
09:00PM 39.8406 -86.3156 238° Southwest 473 544 40,000  Level Indianapolis Center
09:01PM 39.7956 -86.4936 252° West 476 548 40,000  Level Indianapolis Center
09:02PM 39.7689 -86.6531 258° West 461 531 40,000 -60 Level Indianapolis Center
09:03PM 39.7425 -86.8158 258° West 462 532 39,900 -540 Descending Indianapolis Center
09:04PM 39.7158 -86.9808 258° West 467 537 38,900 -1,020 Descending Indianapolis Center
09:05PM 39.6886 -87.1408 258° West 460 529 37,900 -1,080 Descending Indianapolis Center
09:06PM 39.6614 -87.3050 258° West 465 535 36,800 -1,620 Descending Indianapolis Center
09:07PM 39.6297 -87.4978 258° West 459 528 34,600 -2,040 Descending Indianapolis Center
09:08PM 39.6014 -87.6594 257° West 462 532 32,700 -1,860 Descending Indianapolis Center
09:09PM 39.5731 -87.8247 258° West 470 541 30,800 -1,860 Descending Indianapolis Center
09:10PM 39.5433 -87.9931 257° West 478 550 28,900 -1,500 Descending Indianapolis Center
09:11PM 39.5158 -88.1572 258° West 487 560 28,000 -480 Descending Kansas City Center
09:12PM 39.4853 -88.3339 257° West 497 572 28,000 -540 Level Kansas City Center
09:13PM 39.4539 -88.5075 257° West 497 572 26,900 -1,620 Descending Kansas City Center
09:14PM 39.4231 -88.6781 257° West 508 585 24,800 -2,220 Descending Kansas City Center
09:15PM 39.3850 -88.8772 256° West 505 581 22,400 -2,400 Descending Kansas City Center
09:16PM 39.3553 -89.0478 257° West 494 568 20,000 -2,220 Descending Kansas City Center
09:17PM 39.3256 -89.2081 257° West 472 543 17,900 -2,040 Descending Kansas City Center
09:18PM 39.2961 -89.3650 256° West 457 526 15,900 -1,980 Descending Kansas City Center
09:19PM 39.2686 -89.5167 257° West 443 510 13,900 -1,860 Descending Kansas City Center
09:20PM 39.2397 -89.6647 256° West 434 499 12,100 -960 Descending Kansas City Center
09:21PM 39.1997 -89.8044 250° West 425 489 12,000 -120 Descending Kansas City Center
09:22PM 39.1208 -89.9478 235° Southwest 415 478 11,900 -300 Descending Kansas City Center
09:23PM 39.0544 -90.0239 222° Southwest 327 376 11,500 -1,200 Descending Kansas City Center
09:24PM 38.9889 -90.0942 220° Southwest 310 357 9,500 -1,260 Descending Kansas City Center
09:25PM 38.9281 -90.1631 221° Southwest 296 341 9,000 -1,080 Descending Kansas City Center
09:26PM 38.8694 -90.2300 222° Southwest 287 330 7,300 -1,500 Descending Kansas City Center
09:27PM 38.8122 -90.2947 221° Southwest 280 322 6,000 -1,620 Descending Kansas City Center
09:28PM 38.7572 -90.3567 221° Southwest 271 312 4,100 -1,320 Descending Kansas City Center
09:29PM 38.7119 -90.4303 232° Southwest 244 281 3,400 -780 Descending Kansas City Center
09:30PM 38.6858 -90.4869 239° Southwest 215 247 2,600 -840 Descending Kansas City Center
09:31PM 38.6756 -90.5517 259° West 200 230 1,800 -720 Descending Kansas City Center
09:32PM 38.6683 -90.5919 257° West 152 175 1,200 -660 Descending Kansas City Center
09:33PM 38.6617 -90.6369 259° West 133 153 500 -720 Descending Kansas City Center
09:35PM 38.6500 -90.6500 218° Southwest  Level FlightAware Approximate
09:42PM 38.6621 -90.6521 218° Southwest  Level Estimated